Latest Weather Observations for Horn Island

IDQ60801

Issued at 9:35 am EST Saturday 25 October 2014 (issued every 30 minutes, with the page automatically refreshed every 10 minutes)

About weather observations | Map of weather stations | Latest weather observations for QLD | Other Formats
Station Details ID: 027058 Name: HORN ISLAND Lat: -10.58 Lon: 142.29 Height: 4.0 m
Data from the previous 72 hours. | See also: Recent months at Horn Island
Date/Time
EST
Temp
°C
App
Temp
°C
Dew
Point
Rel
Hum
%
Delta-T
°C
Wind Press
QNH
hPa
Press
MSL
hPa
Rain
since 9 am
mm
Dir
 
Spd
km/h
Gust
km/h
Spd
kts
Gust
kts
25/09:30am 28.6 25.3 19.2 56 6.1 E 35 46 19 25 1015.2 - 0.0
25/09:00am 27.8 25.0 19.1 59 5.6 E 32 44 17 24 1015.4 1015.4 0.0
25/08:30am 27.4 25.0 19.2 61 5.3 ESE 30 39 16 21 1015.3 - 0.0
25/08:00am 27.0 24.5 18.8 60 5.3 ESE 30 41 16 22 1015.2 - 0.0
25/07:30am 26.0 24.9 19.4 67 4.3 ESE 24 32 13 17 1014.8 - 0.0
25/07:00am 25.6 24.4 19.3 68 4.0 ESE 24 30 13 16 1014.3 - 0.0
25/06:30am 25.4 23.8 19.1 68 4.0 ESE 26 37 14 20 1013.8 - 0.0
25/06:00am 25.3 23.7 19.2 69 3.9 ESE 26 35 14 19 1013.4 1013.4 0.0
25/05:30am 25.3 23.7 19.2 69 3.9 ESE 26 37 14 20 1013.2 - 0.0
25/05:00am 25.2 24.5 19.6 71 3.6 ESE 22 32 12 17 1013.1 - 0.0
25/04:30am 25.1 23.9 19.2 70 3.8 ESE 24 32 13 17 1012.9 - 0.0
25/04:00am 25.1 24.0 19.5 71 3.6 ESE 24 32 13 17 1013.0 - 0.0
25/03:30am 25.2 24.4 19.3 70 3.8 ESE 22 32 12 17 1013.0 - 0.0
25/03:00am 25.3 22.9 19.0 68 4.0 ESE 30 39 16 21 1013.0 1013.0 0.0
25/02:30am 25.4 23.2 18.8 67 4.2 ESE 28 41 15 22 1013.3 - 0.0
25/02:00am 25.3 22.7 18.7 67 4.2 ESE 30 43 16 23 1013.6 - 0.0
25/01:30am 25.3 23.9 18.7 67 4.2 ESE 24 35 13 19 1013.8 - 0.0
25/01:00am 25.3 23.1 18.7 67 4.2 ESE 28 43 15 23 1014.0 - 0.0
25/12:30am 25.3 23.1 18.7 67 4.2 ESE 28 41 15 22 1014.3 - 0.0
25/12:00am 25.3 23.9 18.7 67 4.2 ESE 24 35 13 19 1014.6 1014.6 0.0
 
Date/Time
EST
Temp
°C
App
Temp
°C
Dew
Point
Rel
Hum
%
Delta-T
°C
Wind Press
QNH
hPa
Press
MSL
hPa
Rain
since 9 am
mm
Dir
 
Spd
km/h
Gust
km/h
Spd
kts
Gust
kts
24/11:30pm 25.4 23.0 19.1 68 4.0 ESE 30 37 16 20 1014.8 - 0.0
24/11:00pm 25.6 23.5 19.0 67 4.2 ESE 28 39 15 21 1015.0 - 0.0
24/10:30pm 25.7 23.8 19.3 67 4.1 ESE 28 41 15 22 1014.9 - 0.0
24/10:00pm 25.6 23.8 19.5 69 3.9 ESE 28 41 15 22 1014.7 - 0.0
24/09:30pm 25.7 24.2 20.3 72 3.5 ESE 28 35 15 19 1014.5 - 0.0
24/09:00pm 25.7 23.5 19.6 69 3.9 ESE 30 43 16 23 1014.2 1014.2 0.0
24/08:30pm 25.5 23.9 20.1 72 3.5 ESE 28 39 15 21 1013.7 - 0.0
24/08:00pm 25.5 23.9 20.7 75 3.1 ESE 30 44 16 24 1013.5 - 0.0
24/07:30pm 25.7 24.0 20.5 73 3.4 ESE 30 43 16 23 1013.1 - 0.0
24/07:00pm 25.5 23.1 19.9 71 3.6 ESE 32 46 17 25 1012.8 - 0.0
24/06:30pm 25.9 23.6 20.2 71 3.7 ESE 32 41 17 22 1012.6 - 0.0
24/06:00pm 26.5 24.7 20.3 68 4.1 ESE 30 43 16 23 1012.4 1012.4 0.0
24/05:30pm 27.1 24.0 19.7 64 4.8 ESE 35 46 19 25 1011.8 - 0.0
24/05:00pm 27.4 24.5 18.9 59 5.5 ESE 32 43 17 23 1011.7 - 0.0
24/04:30pm 28.0 25.2 19.0 58 5.8 ESE 32 44 17 24 1011.6 - 0.0
24/04:00pm 28.3 25.5 19.5 59 5.7 E 33 43 18 23 1011.5 - 0.0
24/03:30pm 28.5 25.1 18.9 56 6.2 E 35 48 19 26 1011.7 - 0.0
24/03:00pm 29.3 26.6 19.6 56 6.3 E 33 46 18 25 1011.7 1011.7 0.0
24/02:30pm 28.6 25.1 19.5 58 5.9 E 37 48 20 26 1011.8 - 0.0
24/02:00pm 29.8 26.1 19.2 53 6.9 ESE 37 50 20 27 1012.1 - 0.0
24/01:30pm 29.6 25.6 19.3 54 6.7 E 39 50 21 27 1012.3 - 0.0
24/01:00pm 29.5 26.1 19.8 56 6.4 E 37 48 20 26 1012.9 - 0.0
24/12:44pm 29.5 26.2 18.3 51 7.2 E 33 52 18 28 1013.1 - 0.0
24/12:30pm 29.5 26.5 19.8 56 6.4 E 35 48 19 26 1013.4 - 0.0
24/12:00pm 29.1 25.0 19.1 54 6.5 E 39 50 21 27 1013.9 1013.9 0.0
24/11:30am 30.2 26.7 19.6 53 6.9 ESE 37 50 20 27 1014.4 - 0.0
24/11:00am 29.1 25.7 19.1 54 6.5 E 35 48 19 26 1014.7 - 0.0
24/10:30am 28.7 25.8 18.8 55 6.4 ESE 32 46 17 25 1015.0 - 0.0
24/10:00am 28.7 25.1 18.5 54 6.5 ESE 35 54 19 29 1015.4 - 0.0
24/09:55am 28.1 24.9 18.5 56 6.1 ESE 33 54 18 29 1015.4 - 0.0
24/09:30am 29.0 25.7 19.3 55 6.3 ESE 35 48 19 26 1015.5 - 0.0
24/09:00am 27.9 24.3 18.6 57 6.0 ESE 35 44 19 24 1015.5 1015.5 0.0
24/08:30am 27.5 23.9 18.5 58 5.7 ESE 35 46 19 25 1015.4 - 0.0
24/08:00am 26.7 23.6 18.8 62 5.1 ESE 33 50 18 27 1015.2 - 0.0
24/07:30am 26.4 23.2 18.5 62 5.0 ESE 33 43 18 23 1014.9 - 0.0
24/07:00am 25.8 23.4 19.0 66 4.4 ESE 30 41 16 22 1014.5 - 0.0
24/06:30am 25.4 23.1 19.3 69 3.9 ESE 30 39 16 21 1014.2 - 0.0
24/06:18am 25.3 23.4 19.4 70 3.8 ESE 28 48 15 26 1014.1 - 0.0
24/06:00am 25.3 23.4 20.1 73 3.4 ESE 30 41 16 22 1013.9 1013.9 0.0
24/05:30am 25.5 24.0 20.3 73 3.4 ESE 28 41 15 22 1013.6 - 0.0
24/05:00am 25.3 23.7 20.1 73 3.4 ESE 28 43 15 23 1013.3 - 0.0
24/04:30am 25.5 23.9 20.7 75 3.1 ESE 30 41 16 22 1013.0 - 0.0
24/04:00am 25.5 24.4 21.0 76 3.0 ESE 28 37 15 20 1012.7 - 0.0
24/03:30am 25.4 23.0 20.4 74 3.3 ESE 33 43 18 23 1012.5 - 0.0
24/03:00am 25.5 23.4 20.5 74 3.3 ESE 32 43 17 23 1012.4 1012.4 0.0
24/02:30am 25.4 23.1 20.2 73 3.4 ESE 32 44 17 24 1012.7 - 0.0
24/02:00am 25.3 23.7 20.1 73 3.4 ESE 28 41 15 22 1012.9 - 0.0
24/01:30am 25.5 24.4 20.3 73 3.4 ESE 26 35 14 19 1013.3 - 0.0
24/01:00am 25.7 24.3 20.5 73 3.4 ESE 28 39 15 21 1013.6 - 0.0
24/12:30am 25.7 24.0 20.5 73 3.4 ESE 30 43 16 23 1013.8 - 0.0
24/12:00am 25.4 23.7 19.8 71 3.6 ESE 28 35 15 19 1014.1 1014.1 0.0
 
Date/Time
EST
Temp
°C
App
Temp
°C
Dew
Point
Rel
Hum
%
Delta-T
°C
Wind Press
QNH
hPa
Press
MSL
hPa
Rain
since 9 am
mm
Dir
 
Spd
km/h
Gust
km/h
Spd
kts
Gust
kts
23/11:30pm 25.4 23.1 19.3 69 3.9 ESE 30 39 16 21 1014.4 - 0.0
23/11:00pm 25.5 22.9 19.6 70 3.8 ESE 32 43 17 23 1014.7 - 0.0
23/10:30pm 25.6 22.7 18.8 66 4.3 ESE 32 41 17 22 1014.8 - 0.0
23/10:00pm 25.7 22.7 18.6 65 4.5 ESE 32 46 17 25 1014.6 - 0.0
23/09:30pm 25.6 23.2 19.0 67 4.2 ESE 30 41 16 22 1014.4 - 0.0
23/09:00pm 25.6 23.5 19.0 67 4.2 ESE 28 39 15 21 1014.2 1014.2 0.0
23/08:30pm 25.6 23.3 19.3 68 4.0 ESE 30 41 16 22 1013.9 - 0.0
23/08:00pm 25.6 23.5 19.0 67 4.2 ESE 28 37 15 20 1013.6 - 0.0
23/07:30pm 25.6 23.1 18.8 66 4.3 ESE 30 41 16 22 1013.4 - 0.0
23/07:00pm 25.7 22.7 18.6 65 4.5 ESE 32 44 17 24 1013.2 - 0.0
23/06:30pm 25.8 22.6 18.7 65 4.5 ESE 33 48 18 26 1012.8 - 0.0
23/06:00pm 26.6 23.3 19.2 64 4.8 ESE 35 44 19 24 1012.3 1012.3 0.0
23/05:30pm 27.3 24.3 18.6 59 5.6 ESE 32 46 17 25 1011.8 - 0.0
23/05:00pm 27.6 24.2 18.9 59 5.6 ESE 35 48 19 26 1011.4 - 0.0
23/04:30pm 28.0 24.6 19.8 61 5.3 ESE 37 46 20 25 1011.2 - 0.0
23/04:00pm 28.4 25.0 19.1 57 6.0 ESE 35 46 19 25 1011.2 - 0.0
23/03:30pm 29.5 26.9 19.8 56 6.4 ESE 33 48 18 26 1011.2 - 0.0
23/03:00pm 28.9 26.3 19.8 58 6.0 ESE 33 48 18 26 1011.2 1011.2 0.0
23/02:30pm 29.0 26.0 19.9 58 6.0 E 35 46 19 25 1011.4 - 0.0
23/02:11pm 29.0 26.6 19.9 58 6.0 E 32 50 17 27 1011.6 - 0.0
23/02:00pm 29.5 26.5 19.8 56 6.4 E 35 50 19 27 1011.8 - 0.0
23/01:30pm 29.5 26.1 19.8 56 6.4 E 37 50 20 27 1012.1 - 0.0
23/01:00pm 29.6 26.3 19.3 54 6.7 E 35 52 19 28 1012.6 - 0.0
23/12:30pm 29.0 25.0 19.3 55 6.3 E 39 50 21 27 1013.0 - 0.0
23/12:00pm 28.9 24.8 19.2 55 6.3 E 39 52 21 28 1013.4 1013.4 0.0
23/11:30am 30.4 27.5 20.0 53 6.8 ESE 35 52 19 28 1013.8 - 0.0
23/11:00am 29.1 25.6 19.7 57 6.1 ESE 37 46 20 25 1014.0 - 0.0
23/10:30am 28.9 25.5 19.8 58 5.9 ESE 37 50 20 27 1014.3 - 0.0
23/10:00am 28.6 26.0 19.8 59 5.7 ESE 33 46 18 25 1014.5 - 0.0
23/09:30am 28.4 26.2 20.4 62 5.3 ESE 32 46 17 25 1014.7 - 0.0
23/09:00am 28.4 26.6 20.4 62 5.3 ESE 30 43 16 23 1014.8 1014.8 0.0
23/08:30am 27.1 24.9 20.7 68 4.2 ESE 33 43 18 23 1014.7 - 0.0
23/08:00am 26.7 24.4 20.1 67 4.3 ESE 32 43 17 23 1014.5 - 0.0
23/07:30am 27.3 26.6 21.1 69 4.1 ESE 26 41 14 22 1014.2 - 0.0
23/07:00am 25.9 24.2 20.5 72 3.5 ESE 30 41 16 22 1013.8 - 0.0
23/06:30am 25.7 24.2 20.9 75 3.2 ESE 30 41 16 22 1013.5 - 0.0
23/06:00am 25.4 24.6 20.9 76 3.0 ESE 26 37 14 20 1013.2 1013.2 0.0
23/05:38am 25.4 24.0 20.4 74 3.3 ESE 28 46 15 25 1012.9 - 0.0
23/05:30am 25.4 24.7 21.1 77 2.8 ESE 26 35 14 19 1012.7 - 0.0
23/05:00am 25.4 24.6 20.9 76 3.0 ESE 26 37 14 20 1012.6 - 0.0
23/04:30am 25.5 24.2 20.7 75 3.1 ESE 28 37 15 20 1012.3 - 0.0
23/04:00am 25.5 23.8 20.5 74 3.3 ESE 30 41 16 22 1012.1 - 0.0
23/03:30am 25.5 23.7 20.3 73 3.4 ESE 30 44 16 24 1012.2 - 0.0
23/03:00am 25.6 24.3 20.6 74 3.3 ESE 28 39 15 21 1012.4 1012.4 0.0
23/02:30am 25.6 23.4 20.8 75 3.2 ESE 33 44 18 24 1012.4 - 0.0
23/02:00am 25.7 24.2 20.9 75 3.2 ESE 30 39 16 21 1012.8 - 0.0
23/01:30am 25.8 24.3 21.0 75 3.2 ESE 30 43 16 23 1013.2 - 0.0
23/01:00am 25.9 24.5 21.1 75 3.2 ESE 30 39 16 21 1013.5 - 0.0
23/12:30am 25.9 24.5 21.1 75 3.2 ESE 30 39 16 21 1013.9 - 0.0
23/12:00am 25.9 23.9 20.7 73 3.4 ESE 32 43 17 23 1014.3 1014.3 0.0
 
Date/Time
EST
Temp
°C
App
Temp
°C
Dew
Point
Rel
Hum
%
Delta-T
°C
Wind Press
QNH
hPa
Press
MSL
hPa
Rain
since 9 am
mm
Dir
 
Spd
km/h
Gust
km/h
Spd
kts
Gust
kts
22/11:30pm 25.9 24.6 20.7 73 3.4 ESE 28 41 15 22 1014.7 - 0.0
22/11:00pm 25.9 24.2 20.5 72 3.5 ESE 30 37 16 20 1015.0 - 0.0
22/10:30pm 26.0 25.4 21.2 75 3.2 ESE 26 35 14 19 1015.1 - 0.0
22/10:00pm 25.9 23.9 20.0 70 3.8 ESE 30 39 16 21 1014.8 - 0.0
22/09:30pm 26.1 24.5 20.7 72 3.5 ESE 30 46 16 25 1014.6 - 0.0
22/09:24pm 26.0 24.5 20.3 71 3.7 ESE 28 46 15 25 1014.6 - 0.0
22/09:00pm 26.1 24.3 20.4 71 3.7 ESE 30 43 16 23 1014.5 1014.5 0.0
22/08:30pm 26.1 24.1 20.7 72 3.5 ESE 32 41 17 22 1014.1 - 0.0
22/08:00pm 26.2 24.6 20.7 71 3.6 ESE 30 44 16 24 1013.8 - 0.0
22/07:30pm 26.1 24.3 20.4 71 3.7 ESE 30 41 16 22 1013.4 - 0.0
22/07:00pm 26.2 24.3 20.1 69 4.0 ESE 30 41 16 22 1013.3 - 0.0
22/06:30pm 26.4 24.6 20.3 69 4.0 SE 30 41 16 22 1012.9 - 0.0
22/06:00pm 27.0 24.7 20.1 66 4.5 ESE 32 44 17 24 1012.5 1012.5 0.0
22/05:30pm 27.5 24.5 19.8 63 5.0 ESE 35 50 19 27 1012.3 - 0.0
22/05:00pm 28.4 25.4 19.9 60 5.6 ESE 35 46 19 25 1011.9 - 0.0
22/04:30pm 28.4 25.5 20.1 60 5.4 ESE 35 48 19 26 1011.8 - 0.0
22/04:00pm 28.7 26.1 19.9 59 5.8 ESE 33 46 18 25 1011.8 - 0.0
22/03:30pm 29.5 27.6 20.9 60 5.7 ESE 32 43 17 23 1011.8 - 0.0
22/03:00pm 29.1 25.6 19.7 57 6.1 ESE 37 52 20 28 1012.0 1012.0 0.0
22/02:30pm 29.4 26.2 20.3 58 6.0 ESE 37 48 20 26 1012.3 - 0.0
22/02:00pm 29.8 26.4 19.8 55 6.6 ESE 37 48 20 26 1012.5 - 0.0
22/01:53pm 30.6 28.0 19.9 52 7.0 ESE 33 52 18 28 1012.5 - 0.0
22/01:30pm 29.7 26.4 20.0 56 6.4 ESE 37 52 20 28 1012.8 - 0.0
22/01:00pm 30.3 27.1 20.2 54 6.7 ESE 37 56 20 30 1013.4 - 0.0
22/12:53pm 29.9 26.5 19.9 55 6.6 ESE 37 56 20 30 1013.5 - 0.0
22/12:30pm 30.7 27.7 20.6 54 6.7 ESE 37 50 20 27 1013.7 - 0.0
22/12:00pm 30.1 27.0 20.4 56 6.4 ESE 37 52 20 28 1014.2 1014.2 0.0
22/11:30am 30.1 27.0 20.4 56 6.4 ESE 37 50 20 27 1014.5 - 0.0
22/11:00am 30.2 28.0 20.7 56 6.3 ESE 33 46 18 25 1014.8 - 0.0
22/10:53am 30.8 28.6 20.7 55 6.7 ESE 33 52 18 28 1014.8 - 0.0
22/10:30am 30.0 27.5 20.8 57 6.1 ESE 35 50 19 27 1014.9 - 0.0
22/10:00am 29.3 26.3 20.7 59 5.7 ESE 37 46 20 25 1015.1 - 0.0

Other Formats:

Comma delimited format used in spreadsheet applications
http://www.bom.gov.au/fwo/IDQ60801/IDQ60801.94174.axf

JavaScript Object Notation format (JSON) in row-major order
http://www.bom.gov.au/fwo/IDQ60801/IDQ60801.94174.json